Dati Storici

Data ora Umidita' aria (%) Temperatura aria (°C) Rad globale (W/m²) Gonioanemometro (°) Tacoanemometro (m/s) Pioggia (mm)
01-11-2012 22:10 89.5 % 10.162 0.845 339.238 0.187 0
01-11-2012 22:00 89.4 % 10.417 1.089 334.267 0.447 0
01-11-2012 21:50 87.6 % 10.301 0.627 92.995 0.406 0
01-11-2012 21:40 88 % 10.841 0.961 181.634 0.621 0
01-11-2012 21:30 87.1 % 10.949 0.879 237.605 0.966 0
01-11-2012 21:20 86.9 % 11.138 1.533 170.114 1.231 0
01-11-2012 21:10 86.3 % 11.101 1.585 227.158 0.337 0
01-11-2012 21:00 86.1 % 11.378 1.816 207.222 1.284 0
01-11-2012 20:50 86.8 % 11.284 1.585 191.145 0.996 0
01-11-2012 20:40 86.7 % 11.366 2.008 189.402 1.186 0
01-11-2012 20:30 87 % 11.456 1.88 171.254 3.067 0
01-11-2012 20:20 87.1 % 11.435 2.085 195.356 1.937 0
01-11-2012 20:10 87.2 % 11.495 2.277 220.223 2.465 0
01-11-2012 20:00 86.8 % 11.501 2.201 214.497 2.003 0
01-11-2012 19:50 86.5 % 11.653 2.124 204.059 1.828 0
01-11-2012 19:40 86.8 % 11.613 2.098 226.384 2.006 0
01-11-2012 19:30 86.3 % 11.691 2.136 172.54 2.375 0
01-11-2012 19:20 86 % 11.733 1.983 189.808 1.528 0
01-11-2012 19:10 85.5 % 11.78 2.073 205.439 1.245 0
01-11-2012 19:00 84.9 % 11.901 1.918 174.402 2.991 0

I dati sono presentati in modo automatico a scopo informativo. In seguito a verifica i dati possono subire modifiche o essere invalidati e non riportati negli archivi definitivi.